London Southend Airport

Airport
ICAO code: 
EGMC
IATA Code: 
SEN
Summary
ICAO Region: 
EUR
Territory: 
Location: 
Rochford, Essex, England
Serving: 
Southend
Elevation: 
49 ft
Coordinates: 
Aerial View: 
51° 34' 20.868" N, 0° 41' 52.608" E
Metar
Observation
EGMC 270250Z 24011KT 7000 RADZ BKN009 03/02 Q0980
Station
Southend-On-Sea
Date/Time
2021-11-27 02:50:00
Wind direction
240°
Wind speed
11 kts
Lowest cloud amount
broken clouds
Temperature
3°C
Dew point
2°C
Humidity
93%
QNH
980 hPa
Weather condition
n/a

Description

London Southend Airport or Southend Airport is a regional airport in the District of Rochford within Essex, England.

Climatology

Temperate Marine climate/Oceanic climate (Köppen climate classification Cfb). Moderately cool summer and comparatively warm winter with a temperature range of only 14°C. Prevailing south-westerly winds from the Atlantic Ocean.

Runways

Designator Length Width Surface Rops
6/24 1531 37 ASP Yes/Yes
Airport map: 
Aerial View: 

Accidents and Serious Incidents at or in the vicinity of EGMC

SKYbrary Partners:

Safety knowledge contributed by: